K05 EFKU-EFKU

Flight info

Callsign K05
Flight time 0h 41m
Altitude 12000
Route KUTA
Aircraft G115/L-SDGR/C

Departure

Time 2026-04-12 09:17
Airport Kuopio Airport (EFKU)

Arrival

Time 2026-04-12 09:58
Airport Kuopio Airport (EFKU)
Time Latitude Longitude Altitude Speed Heading
2026-04-12 09:02 63.00405 27.79016 314 ft 0 kts 71°
2026-04-12 09:12 63.00406 27.79017 314 ft 1 kts 67°
2026-04-12 09:12 63.00438 27.79065 314 ft 12 kts 11°
2026-04-12 09:13 63.00530 27.79164 314 ft 17 kts 35°
2026-04-12 09:13 63.00626 27.79324 316 ft 16 kts 53°
2026-04-12 09:13 63.00670 27.79518 316 ft 11 kts 71°
2026-04-12 09:13 63.00678 27.79563 315 ft 0 kts 65°
2026-04-12 09:16 63.00695 27.79656 315 ft 12 kts 68°
2026-04-12 09:16 63.00747 27.79746 317 ft 11 kts 338°
2026-04-12 09:16 63.00961 27.79555 325 ft 58 kts 339°
2026-04-12 09:16 63.01400 27.79141 479 ft 68 kts 338°
2026-04-12 09:17 63.01819 27.78720 668 ft 68 kts 334°
2026-04-12 09:17 63.02230 27.78174 847 ft 70 kts 316°
2026-04-12 09:17 63.02300 27.77216 1047 ft 68 kts 235°
2026-04-12 09:17 63.01998 27.76564 1287 ft 58 kts 200°
2026-04-12 09:18 63.01633 27.76239 1466 ft 58 kts 194°
2026-04-12 09:18 63.01258 27.75916 1696 ft 53 kts 188°
2026-04-12 09:18 63.00905 27.75632 1851 ft 54 kts 192°
2026-04-12 09:18 63.00553 27.75324 1983 ft 59 kts 190°
2026-04-12 09:19 63.00153 27.75093 2159 ft 59 kts 188°
2026-04-12 09:19 62.99785 27.74723 2348 ft 62 kts 215°
2026-04-12 09:19 62.99513 27.73971 2535 ft 64 kts 226°
2026-04-12 09:20 62.99004 27.72342 3046 ft 62 kts 216°
2026-04-12 09:20 62.98835 27.71463 3271 ft 77 kts 289°
2026-04-12 09:20 62.99403 27.69335 3701 ft 79 kts 279°
2026-04-12 09:21 62.99594 27.68151 3975 ft 82 kts 280°
2026-04-12 09:21 62.99752 27.66943 4182 ft 80 kts 279°
2026-04-12 09:21 62.99833 27.65751 4294 ft 84 kts 262°
2026-04-12 09:21 62.99944 27.64393 4395 ft 96 kts 274°
2026-04-12 09:22 63.00076 27.62880 4626 ft 102 kts 275°
2026-04-12 09:22 63.00216 27.61314 4749 ft 107 kts 273°
2026-04-12 09:22 63.00335 27.59687 4989 ft 106 kts 272°
2026-04-12 09:22 63.00433 27.58097 5197 ft 105 kts 274°
2026-04-12 09:23 63.00532 27.56486 5294 ft 107 kts 271°
2026-04-12 09:23 63.00661 27.54911 5514 ft 100 kts 274°
2026-04-12 09:23 63.00789 27.53466 5688 ft 94 kts 283°
2026-04-12 09:23 63.01004 27.52096 5817 ft 95 kts 285°
2026-04-12 09:24 63.01195 27.50760 6036 ft 91 kts 283°
2026-04-12 09:24 63.01377 27.49378 6207 ft 94 kts 279°
2026-04-12 09:24 63.01552 27.47988 6370 ft 95 kts 288°
2026-04-12 09:24 63.01749 27.46602 6575 ft 94 kts 287°
2026-04-12 09:25 63.01953 27.45198 6728 ft 97 kts 281°
2026-04-12 09:25 63.02123 27.43771 6960 ft 95 kts 278°
2026-04-12 09:25 63.02143 27.42351 7082 ft 90 kts 261°
2026-04-12 09:25 63.02117 27.41000 7179 ft 93 kts 274°
2026-04-12 09:26 63.02239 27.39646 7313 ft 91 kts 279°
2026-04-12 09:26 63.02407 27.38294 7408 ft 92 kts 285°
2026-04-12 09:26 63.02611 27.36971 7533 ft 89 kts 289°
2026-04-12 09:26 63.02829 27.35659 7603 ft 94 kts 287°
2026-04-12 09:27 63.03023 27.34199 7668 ft 97 kts 282°
2026-04-12 09:27 63.03142 27.32763 7770 ft 99 kts 283°
2026-04-12 09:27 63.03362 27.31331 7966 ft 94 kts 286°
2026-04-12 09:27 63.03561 27.29953 8090 ft 95 kts 285°
2026-04-12 09:28 63.03651 27.28481 8175 ft 102 kts 267°
2026-04-12 09:28 63.03588 27.26990 8356 ft 95 kts 259°
2026-04-12 09:28 63.03552 27.25495 8483 ft 91 kts 257°
2026-04-12 09:28 63.03248 27.24525 8611 ft 72 kts 187°
2026-04-12 09:29 63.02864 27.24785 8693 ft 59 kts 111°
2026-04-12 09:29 63.03031 27.25571 8743 ft 74 kts 34°
2026-04-12 09:29 63.03558 27.25220 8767 ft 93 kts 314°
2026-04-12 09:29 63.03715 27.23857 8839 ft 92 kts 256°
2026-04-12 09:30 63.03548 27.22547 8982 ft 91 kts 265°
2026-04-12 09:30 63.03777 27.21329 9101 ft 85 kts 332°
2026-04-12 09:30 63.04328 27.20825 9141 ft 84 kts 13°
2026-04-12 09:30 63.04830 27.21213 9227 ft 72 kts 59°
2026-04-12 09:31 63.05120 27.21814 9218 ft 33 kts 98°
2026-04-12 09:31 63.05103 27.20727 7917 ft 125 kts 257°
2026-04-12 09:31 63.05081 27.19968 7881 ft 50 kts 212°
2026-04-12 09:31 63.04863 27.19596 5614 ft 54 kts 222°
2026-04-12 09:32 63.04488 27.18934 6095 ft 46 kts 190°
2026-04-12 09:32 63.04380 27.18287 5806 ft 72 kts
2026-04-12 09:32 63.04112 27.17656 5526 ft 59 kts 205°
2026-04-12 09:32 63.03755 27.17104 5802 ft 61 kts 204°
2026-04-12 09:33 63.03452 27.16502 6045 ft 58 kts 207°
2026-04-12 09:33 63.03113 27.15968 6147 ft 63 kts 192°
2026-04-12 09:33 63.02656 27.15832 6193 ft 75 kts 182°
2026-04-12 09:33 63.02137 27.15558 6345 ft 73 kts 182°
2026-04-12 09:34 63.01631 27.15449 6471 ft 76 kts 182°
2026-04-12 09:34 63.01112 27.15329 6613 ft 76 kts 177°
2026-04-12 09:34 63.00592 27.15100 6760 ft 79 kts 195°
2026-04-12 09:34 63.00182 27.14149 6841 ft 100 kts 248°
2026-04-12 09:35 63.00271 27.12724 7077 ft 91 kts 300°
2026-04-12 09:35 63.00695 27.11532 7147 ft 96 kts 315°
2026-04-12 09:35 63.01085 27.10635 7217 ft 81 kts 313°
2026-04-12 09:35 63.01342 27.09644 7214 ft 71 kts 274°
2026-04-12 09:36 63.01230 27.08719 7182 ft 59 kts 216°
2026-04-12 09:36 63.00877 27.08231 6932 ft 90 kts 190°
2026-04-12 09:36 63.00287 27.07943 7236 ft 65 kts 154°
2026-04-12 09:36 62.99995 27.08500 7490 ft 17 kts 97°
2026-04-12 09:37 63.00138 27.08537 5680 ft 21 kts 180°
2026-04-12 09:37 62.99528 27.08426 5914 ft 76 kts 180°
2026-04-12 09:37 62.99042 27.08297 6205 ft 59 kts 178°
2026-04-12 09:37 62.98736 27.07850 6231 ft 72 kts 240°
2026-04-12 09:38 62.98950 27.06448 5948 ft 98 kts 301°
2026-04-12 09:38 62.99144 27.05418 6201 ft 70 kts 256°
2026-04-12 09:38 62.98730 27.04947 6246 ft 45 kts 226°
2026-04-12 09:38 62.98624 27.03813 6131 ft 42 kts 184°
2026-04-12 09:39 62.98319 27.04423 5933 ft 44 kts 122°
2026-04-12 09:39 62.98365 27.04691 5315 ft 24 kts 191°
2026-04-12 09:39 62.98844 27.04519 5085 ft 62 kts 354°
2026-04-12 09:39 62.99572 27.04318 4694 ft 133 kts 358°
2026-04-12 09:40 62.99955 27.04682 4975 ft 64 kts 170°
2026-04-12 09:40 62.99668 27.05407 5239 ft 19 kts 68°
2026-04-12 09:40 62.99909 27.06175 4759 ft 55 kts 50°
2026-04-12 09:40 62.99911 27.05750 3966 ft 81 kts 52°
2026-04-12 09:41 63.00096 27.05030 3883 ft 88 kts 287°
2026-04-12 09:41 63.00038 27.05673 4195 ft 25 kts 114°
2026-04-12 09:41 62.99669 27.06170 4089 ft 72 kts 156°
2026-04-12 09:41 62.99516 27.07010 4310 ft 80 kts 88°
2026-04-12 09:42 62.99610 27.07933 4632 ft 47 kts 71°
2026-04-12 09:42 62.99772 27.08599 4162 ft 45 kts 36°
2026-04-12 09:42 63.00037 27.09543 3963 ft 67 kts 112°
2026-04-12 09:43 62.99627 27.12450 4336 ft 72 kts 112°
2026-04-12 09:43 62.99506 27.13506 4490 ft 72 kts 101°
2026-04-12 09:43 62.99682 27.14591 4627 ft 84 kts 67°
2026-04-12 09:44 62.99890 27.15640 4847 ft 71 kts 95°
2026-04-12 09:44 62.99774 27.16643 4995 ft 68 kts 111°
2026-04-12 09:44 62.99683 27.17730 5142 ft 73 kts 121°
2026-04-12 09:44 62.99364 27.18521 5337 ft 66 kts 142°
2026-04-12 09:45 62.99050 27.19302 5425 ft 74 kts 108°
2026-04-12 09:45 62.99145 27.20465 5549 ft 73 kts 88°
2026-04-12 09:45 62.99169 27.21485 5664 ft 67 kts 120°
2026-04-12 09:45 62.98909 27.22573 5652 ft 73 kts 120°
2026-04-12 09:46 62.98877 27.23658 5696 ft 76 kts 76°
2026-04-12 09:46 62.99084 27.24613 6047 ft 52 kts 102°
2026-04-12 09:46 62.98719 27.25560 5903 ft 88 kts 134°
2026-04-12 09:46 62.98328 27.26413 6077 ft 81 kts 132°
2026-04-12 09:47 62.97957 27.27308 6250 ft 83 kts 143°
2026-04-12 09:47 62.97391 27.27760 6264 ft 89 kts 156°
2026-04-12 09:47 62.96835 27.28192 6482 ft 81 kts 160°
2026-04-12 09:47 62.96254 27.28412 6590 ft 85 kts 161°
2026-04-12 09:48 62.95707 27.28636 6708 ft 84 kts 168°
2026-04-12 09:48 62.95149 27.29000 6706 ft 85 kts 129°
2026-04-12 09:48 62.95056 27.30225 6799 ft 84 kts 82°
2026-04-12 09:48 62.95167 27.31464 6887 ft 79 kts 84°
2026-04-12 09:49 62.95189 27.32633 6956 ft 78 kts 96°
2026-04-12 09:49 62.95172 27.33801 7110 ft 75 kts 93°
2026-04-12 09:49 62.95217 27.34996 7138 ft 81 kts 88°
2026-04-12 09:49 62.95302 27.36230 7197 ft 82 kts 83°
2026-04-12 09:50 62.95406 27.37478 7253 ft 83 kts 83°
2026-04-12 09:50 62.95508 27.38769 7280 ft 86 kts 82°
2026-04-12 09:50 62.95638 27.40028 7381 ft 83 kts 84°
2026-04-12 09:50 62.95708 27.41309 7502 ft 84 kts 88°
2026-04-12 09:51 62.95763 27.42592 7583 ft 84 kts 90°
2026-04-12 09:51 62.95775 27.43891 7634 ft 90 kts 93°
2026-04-12 09:51 62.95772 27.45347 7634 ft 100 kts 92°
2026-04-12 09:51 62.95807 27.46906 7652 ft 105 kts 88°
2026-04-12 09:52 62.95908 27.48517 7687 ft 107 kts 83°
2026-04-12 09:52 62.96054 27.50115 7736 ft 107 kts 82°
2026-04-12 09:52 62.96198 27.51717 7780 ft 107 kts 83°
2026-04-12 09:52 62.96353 27.53315 7850 ft 104 kts 79°
2026-04-12 09:53 62.96522 27.54844 7940 ft 102 kts 81°
2026-04-12 09:53 62.96634 27.56416 7959 ft 105 kts 83°
2026-04-12 09:53 62.96898 27.57948 7991 ft 108 kts 68°
2026-04-12 09:53 62.97285 27.59475 7793 ft 126 kts 65°
2026-04-12 09:54 62.97728 27.61300 7381 ft 145 kts 68°
2026-04-12 09:54 62.98193 27.63300 7116 ft 145 kts 66°
2026-04-12 09:54 62.98664 27.65227 6870 ft 141 kts 66°
2026-04-12 09:54 62.99114 27.67147 6335 ft 144 kts 67°
2026-04-12 09:55 62.99593 27.69132 5648 ft 151 kts 66°
2026-04-12 09:55 63.00091 27.71211 4955 ft 156 kts 69°
2026-04-12 09:55 63.00516 27.73321 4376 ft 147 kts 77°
2026-04-12 09:55 63.00473 27.75449 3785 ft 135 kts 115°
2026-04-12 09:56 62.99897 27.76894 3309 ft 125 kts 147°
2026-04-12 09:56 62.99124 27.77892 2819 ft 132 kts 152°
2026-04-12 09:56 62.98358 27.78942 2523 ft 128 kts 149°
2026-04-12 09:56 62.97587 27.79928 2302 ft 127 kts 149°
2026-04-12 09:57 62.96908 27.81116 1873 ft 125 kts 123°
2026-04-12 09:57 62.96945 27.82879 1688 ft 121 kts 65°
2026-04-12 09:57 62.97621 27.82679 1506 ft 112 kts 332°
2026-04-12 09:57 62.98282 27.82014 1178 ft 102 kts 336°
2026-04-12 09:58 62.98931 27.81396 678 ft 99 kts 341°
2026-04-12 09:58 62.99533 27.80856 352 ft 84 kts 342°
2026-04-12 09:58 62.99966 27.80460 314 ft 53 kts 345°
2026-04-12 09:58 63.00237 27.80227 304 ft 35 kts 339°
2026-04-12 09:59 63.00448 27.80033 305 ft 30 kts 342°
2026-04-12 09:59 63.00618 27.79876 310 ft 23 kts 333°
2026-04-12 09:59 63.00705 27.79717 315 ft 12 kts 278°
2026-04-12 09:59 63.00678 27.79567 315 ft 11 kts 248°
2026-04-12 10:00 63.00646 27.79403 316 ft 13 kts 246°
2026-04-12 10:00 63.00587 27.79260 314 ft 14 kts 221°
2026-04-12 10:00 63.00504 27.79125 314 ft 16 kts 216°
2026-04-12 10:00 63.00450 27.79033 314 ft 12 kts 212°
2026-04-12 10:01 63.00404 27.78997 314 ft 5 kts 112°
2026-04-12 10:01 63.00409 27.79036 314 ft 0 kts 70°